Time;durP1;ratioP1;P1;durP2;ratioP2;P2;SDS_P1;SDS_P2;PMS_P1;PMS_P2;Temp;Humidity;BMP_temperature;BMP_pressure;BME280_temperature;BME280_humidity;BME280_pressure;Samples;Min_cycle;Max_cycle;Signal;HPM_P1;HPM_P2
2024/01/20 00:00:45;;;;;;;18.90;7.13;;;;;;;-3.39;100.00;97263.56;4977101;28;20215;-69
2024/01/20 00:03:11;;;;;;;19.57;8.13;;;;;;;-3.39;100.00;97249.84;4980694;28;20675;-69
2024/01/20 00:05:38;;;;;;;20.13;8.73;;;;;;;-3.26;100.00;97248.38;4978570;28;20196;-69
2024/01/20 00:08:06;;;;;;;20.73;8.23;;;;;;;-3.25;100.00;97253.47;4977577;28;20238;-69
2024/01/20 00:10:32;;;;;;;17.93;8.43;;;;;;;-3.77;100.00;97255.03;4980563;28;20219;-69
2024/01/20 00:12:59;;;;;;;18.90;7.73;;;;;;;-3.52;100.00;97261.59;4978850;28;20327;-69
2024/01/20 00:15:25;;;;;;;21.53;7.47;;;;;;;-3.46;100.00;97257.03;4977724;28;20223;-69
2024/01/20 00:17:52;;;;;;;21.53;7.27;;;;;;;-3.43;100.00;97250.91;4978214;28;20234;-69
2024/01/20 00:20:18;;;;;;;17.67;8.20;;;;;;;-3.42;100.00;97257.72;4976750;28;20769;-69
2024/01/20 00:22:45;;;;;;;19.60;8.70;;;;;;;-3.44;100.00;97252.63;4976721;28;20207;-69
2024/01/20 00:25:13;;;;;;;20.03;7.73;;;;;;;-3.33;100.00;97255.56;4978687;28;21092;-69
2024/01/20 00:27:39;;;;;;;22.53;8.43;;;;;;;-3.64;100.00;97256.97;4979112;28;20227;-69
2024/01/20 00:30:07;;;;;;;18.80;7.97;;;;;;;-3.55;100.00;97256.59;4977052;28;20211;-69
2024/01/20 00:32:33;;;;;;;18.40;7.63;;;;;;;-3.54;100.00;97256.53;4977885;28;20204;-69
2024/01/20 00:35:00;;;;;;;25.77;8.90;;;;;;;-3.53;100.00;97259.94;4978773;28;20356;-69
2024/01/20 00:37:27;;;;;;;20.27;8.13;;;;;;;-3.50;100.00;97264.94;4978118;28;20744;-69
2024/01/20 00:39:53;;;;;;;19.30;7.27;;;;;;;-3.55;100.00;97266.91;4978235;28;20218;-69
2024/01/20 00:42:21;;;;;;;21.87;8.40;;;;;;;-3.42;100.00;97271.44;4979497;28;20235;-69
2024/01/20 00:44:47;;;;;;;23.60;9.87;;;;;;;-3.46;100.00;97269.91;4977534;28;20214;-69
2024/01/20 00:47:14;;;;;;;22.27;10.10;;;;;;;-3.40;100.00;97268.78;4978366;28;20757;-70
2024/01/20 00:49:41;;;;;;;24.43;9.97;;;;;;;-3.53;100.00;97271.06;4975820;28;20214;-69
2024/01/20 00:52:07;;;;;;;18.47;8.73;;;;;;;-3.57;100.00;97263.56;4978045;28;20207;-70
2024/01/20 00:54:34;;;;;;;28.07;10.07;;;;;;;-3.73;100.00;97265.09;4978618;28;20211;-70
2024/01/20 00:57:00;;;;;;;17.60;7.67;;;;;;;-3.74;100.00;97267.75;4976666;28;20235;-70
2024/01/20 00:59:28;;;;;;;21.50;8.93;;;;;;;-3.53;100.00;97258.19;4978086;28;20215;-70
2024/01/20 01:01:54;;;;;;;22.53;7.93;;;;;;;-3.70;100.00;97261.56;4976802;28;20232;-70
2024/01/20 01:04:21;;;;;;;17.03;8.27;;;;;;;-3.64;100.00;97271.59;4978977;28;20211;-69
2024/01/20 01:06:48;;;;;;;26.50;10.33;;;;;;;-3.62;100.00;97274.03;4977357;28;20234;-69
2024/01/20 01:09:15;;;;;;;23.43;10.33;;;;;;;-3.52;100.00;97266.75;4976460;28;20217;-70
2024/01/20 01:11:41;;;;;;;23.53;10.13;;;;;;;-3.51;100.00;97274.41;4978257;28;20207;-69
2024/01/20 01:14:08;;;;;;;23.97;9.87;;;;;;;-3.54;100.00;97284.88;4977264;28;20756;-68
2024/01/20 01:16:36;;;;;;;18.67;7.23;;;;;;;-3.52;100.00;97284.78;4977849;28;20600;-70
2024/01/20 01:19:02;;;;;;;18.00;8.07;;;;;;;-3.73;100.00;97290.03;4975530;28;20215;-70
2024/01/20 01:21:29;;;;;;;16.77;7.13;;;;;;;-3.80;100.00;97296.38;4978480;28;20222;-70
2024/01/20 01:23:55;;;;;;;20.37;7.77;;;;;;;-3.75;100.00;97302.16;4976761;28;20252;-70
2024/01/20 01:26:23;;;;;;;19.47;8.53;;;;;;;-3.70;100.00;97305.34;4977274;28;20211;-70
2024/01/20 01:28:50;;;;;;;21.93;8.50;;;;;;;-3.80;100.00;97310.06;4977812;28;20260;-70
2024/01/20 01:31:16;;;;;;;24.17;9.23;;;;;;;-3.81;100.00;97310.13;4976621;28;20215;-70
2024/01/20 01:33:44;;;;;;;19.47;7.97;;;;;;;-3.63;100.00;97316.19;4975254;28;20207;-68
2024/01/20 01:36:11;;;;;;;19.80;7.77;;;;;;;-3.69;100.00;97325.91;4977245;28;20728;-70
2024/01/20 01:38:37;;;;;;;21.00;8.63;;;;;;;-3.54;100.00;97317.50;4977284;28;20264;-69
2024/01/20 01:41:04;;;;;;;23.73;8.70;;;;;;;-3.46;100.00;97316.25;4977302;28;20203;-69
2024/01/20 01:43:31;;;;;;;22.37;9.17;;;;;;;-3.55;100.00;97311.53;4977194;28;20213;-70
2024/01/20 01:45:57;;;;;;;24.17;9.77;;;;;;;-3.59;100.00;97309.97;4975799;28;20207;-69
2024/01/20 01:48:24;;;;;;;23.40;7.67;;;;;;;-3.64;100.00;97299.94;4976767;28;20233;-68
2024/01/20 01:50:54;;;;;;;18.93;7.33;;;;;;;-3.73;100.00;97288.28;4977507;28;20215;-70
2024/01/20 01:53:21;;;;;;;19.47;8.37;;;;;;;-3.80;100.00;97291.22;4978102;28;20222;-70
2024/01/20 01:55:48;;;;;;;21.83;8.73;;;;;;;-3.65;100.00;97280.22;4975177;28;20713;-70
2024/01/20 01:58:15;;;;;;;18.63;8.17;;;;;;;-3.75;100.00;97292.69;4977852;28;20655;-70
2024/01/20 02:00:42;;;;;;;18.27;8.10;;;;;;;-3.78;100.00;97300.56;4977944;28;20655;-70
2024/01/20 02:03:09;;;;;;;14.77;6.97;;;;;;;-4.03;100.00;97319.66;4975355;28;20212;-70
2024/01/20 02:05:36;;;;;;;19.23;7.30;;;;;;;-3.98;100.00;97320.31;4977879;28;20707;-70
2024/01/20 02:08:05;;;;;;;21.53;9.20;;;;;;;-3.79;100.00;97319.47;4976085;28;20644;-70
2024/01/20 02:10:32;;;;;;;22.43;9.27;;;;;;;-3.90;100.00;97320.81;4975270;28;20207;-70
2024/01/20 02:12:59;;;;;;;19.43;7.60;;;;;;;-3.96;100.00;97321.06;4977305;28;20669;-70
2024/01/20 02:15:27;;;;;;;19.40;8.53;;;;;;;-3.78;100.00;97320.28;4977842;28;20203;-70
2024/01/20 02:17:55;;;;;;;14.03;6.53;;;;;;;-3.71;100.00;97322.53;4974568;28;20234;-70
2024/01/20 02:20:23;;;;;;;20.57;9.03;;;;;;;-3.84;100.00;97325.72;4975006;28;20573;-70
2024/01/20 02:22:50;;;;;;;18.37;7.57;;;;;;;-3.81;100.00;97325.59;4977161;28;20208;-70
2024/01/20 02:25:17;;;;;;;19.10;8.37;;;;;;;-3.95;100.00;97323.56;4975373;28;20203;-70
2024/01/20 02:27:43;;;;;;;20.97;8.73;;;;;;;-4.05;100.00;97327.47;4977734;28;20219;-70
2024/01/20 02:30:11;;;;;;;19.90;8.07;;;;;;;-4.01;100.00;97333.28;4977000;28;20218;-70
2024/01/20 02:32:37;;;;;;;22.03;8.70;;;;;;;-3.95;100.00;97328.72;4976304;28;20203;-70
2024/01/20 02:35:04;;;;;;;18.93;7.93;;;;;;;-3.92;100.00;97335.47;4977377;28;20207;-70
2024/01/20 02:37:31;;;;;;;21.07;9.40;;;;;;;-3.94;100.00;97339.88;4975546;28;20238;-70
2024/01/20 02:39:59;;;;;;;17.77;8.00;;;;;;;-4.00;100.00;97340.94;4975756;28;20218;-69
2024/01/20 02:42:26;;;;;;;21.53;8.63;;;;;;;-4.01;100.00;97338.44;4977301;28;20218;-69
2024/01/20 02:44:52;;;;;;;23.47;10.53;;;;;;;-4.06;100.00;97336.06;4976176;28;20608;-70
2024/01/20 02:47:19;;;;;;;26.00;10.10;;;;;;;-4.03;100.00;97340.25;4978657;28;20231;-70
2024/01/20 02:49:46;;;;;;;24.77;9.40;;;;;;;-3.91;100.00;97339.75;4977900;28;20214;-70
2024/01/20 02:52:12;;;;;;;25.43;9.17;;;;;;;-4.05;100.00;97342.03;4980667;28;20219;-69
2024/01/20 02:54:39;;;;;;;16.60;6.70;;;;;;;-4.01;100.00;97338.44;4979835;28;20759;-70
2024/01/20 02:57:07;;;;;;;16.17;7.33;;;;;;;-3.89;100.00;97345.66;4977702;28;20227;-70
2024/01/20 02:59:33;;;;;;;18.33;7.97;;;;;;;-4.05;100.00;97332.59;4980557;28;20206;-70
2024/01/20 03:02:01;;;;;;;24.17;7.63;;;;;;;-3.91;100.00;97334.59;4979655;28;20203;-70
2024/01/20 03:04:28;;;;;;;18.70;7.73;;;;;;;-3.99;100.00;97336.66;4980157;28;20206;-70
2024/01/20 03:06:55;;;;;;;19.13;8.07;;;;;;;-4.10;100.00;97347.41;4978566;28;20581;-70
2024/01/20 03:09:21;;;;;;;21.73;8.43;;;;;;;-3.95;100.00;97343.34;4978556;28;20230;-70
2024/01/20 03:11:48;;;;;;;21.17;8.93;;;;;;;-3.92;100.00;97343.22;4978095;28;20207;-70
2024/01/20 03:14:16;;;;;;;23.63;8.73;;;;;;;-3.88;100.00;97337.03;4981233;28;20312;-70
2024/01/20 03:16:42;;;;;;;19.67;9.17;;;;;;;-3.80;100.00;97333.22;4978533;28;20620;-70
2024/01/20 03:19:09;;;;;;;26.33;9.17;;;;;;;-3.85;100.00;97326.63;4977023;28;20207;-70
2024/01/20 03:21:35;;;;;;;25.83;11.27;;;;;;;-3.90;100.00;97331.94;4978094;28;20909;-70
2024/01/20 03:24:02;;;;;;;27.30;10.80;;;;;;;-3.79;100.00;97328.91;4979510;28;20217;-69
2024/01/20 03:26:28;;;;;;;27.40;10.23;;;;;;;-3.67;100.00;97329.22;4979115;28;20210;-70
2024/01/20 03:28:55;;;;;;;22.73;8.70;;;;;;;-3.62;100.00;97322.97;4980084;28;20200;-70
2024/01/20 03:31:24;;;;;;;24.37;8.30;;;;;;;-3.55;100.00;97324.41;4979166;28;20203;-70
2024/01/20 03:33:50;;;;;;;19.60;7.73;;;;;;;-3.54;100.00;97320.94;4977786;28;20209;-70
2024/01/20 03:36:17;;;;;;;27.77;10.47;;;;;;;-3.53;100.00;97327.72;4978490;28;20242;-70
2024/01/20 03:38:43;;;;;;;27.67;10.63;;;;;;;-3.43;100.00;97329.00;4980537;28;20231;-70
2024/01/20 03:41:10;;;;;;;26.83;9.87;;;;;;;-3.59;100.00;97329.72;4978048;28;20210;-70
2024/01/20 03:43:36;;;;;;;32.87;11.63;;;;;;;-3.47;100.00;97339.53;4978671;28;20203;-70
2024/01/20 03:46:03;;;;;;;29.93;11.70;;;;;;;-3.43;100.00;97330.75;4979487;28;20470;-70
2024/01/20 03:48:31;;;;;;;36.70;11.87;;;;;;;-3.16;100.00;97340.66;4975332;28;20222;-70
2024/01/20 03:50:58;;;;;;;29.43;11.70;;;;;;;-3.28;100.00;97333.50;4978410;28;20202;-70
2024/01/20 03:53:24;;;;;;;28.43;11.40;;;;;;;-3.33;100.00;97332.84;4979034;28;20285;-70
2024/01/20 03:55:51;;;;;;;28.40;11.23;;;;;;;-3.21;100.00;97346.94;4977098;28;20211;-70
2024/01/20 03:58:17;;;;;;;29.73;11.20;;;;;;;-3.20;100.00;97346.88;4979790;28;20227;-70
2024/01/20 04:00:44;;;;;;;35.77;11.73;;;;;;;-3.27;100.00;97355.78;4982232;28;20215;-70
2024/01/20 04:03:10;;;;;;;31.23;12.80;;;;;;;-3.36;100.00;97351.03;4978155;28;20213;-70
2024/01/20 04:05:39;;;;;;;24.00;9.53;;;;;;;-3.13;100.00;97352.59;4978629;28;20207;-70
2024/01/20 04:08:06;;;;;;;25.23;10.00;;;;;;;-3.12;100.00;97344.78;4977103;28;20238;-70
2024/01/20 04:10:32;;;;;;;24.87;9.73;;;;;;;-3.33;100.00;97361.19;4981228;28;21035;-70
2024/01/20 04:12:59;;;;;;;24.10;9.83;;;;;;;-3.82;100.00;97365.09;4977080;28;20201;-70
2024/01/20 04:15:25;;;;;;;23.30;9.67;;;;;;;-4.05;100.00;97376.34;4979053;28;20222;-70
2024/01/20 04:17:53;;;;;;;23.17;9.23;;;;;;;-3.69;100.00;97376.56;4976410;28;20235;-70
2024/01/20 04:20:19;;;;;;;22.93;9.77;;;;;;;-3.60;100.00;97372.69;4976963;28;20281;-70
2024/01/20 04:22:47;;;;;;;22.10;8.30;;;;;;;-3.38;100.00;97373.44;4979102;28;20208;-70
2024/01/20 04:25:14;;;;;;;24.27;10.47;;;;;;;-3.46;100.00;97374.69;4978285;28;20579;-70
2024/01/20 04:27:41;;;;;;;29.43;11.30;;;;;;;-3.26;100.00;97380.66;4978543;28;20237;-70
2024/01/20 04:30:08;;;;;;;25.83;9.50;;;;;;;-3.07;100.00;97389.22;4978016;28;20211;-70
2024/01/20 04:32:35;;;;;;;27.10;10.63;;;;;;;-3.08;100.00;97395.31;4979714;28;20207;-70
2024/01/20 04:35:02;;;;;;;28.03;10.03;;;;;;;-2.98;100.00;97393.97;4976681;28;20207;-70
2024/01/20 04:37:29;;;;;;;24.43;9.33;;;;;;;-3.11;100.00;97395.44;4979590;28;20234;-70
2024/01/20 04:39:57;;;;;;;30.47;10.40;;;;;;;-3.30;100.00;97393.72;4978427;28;20584;-70
2024/01/20 04:42:23;;;;;;;25.47;10.47;;;;;;;-3.28;100.00;97397.91;4976982;28;20260;-69
2024/01/20 04:44:50;;;;;;;29.53;10.67;;;;;;;-3.16;100.00;97393.97;4979716;28;20741;-70
2024/01/20 04:47:16;;;;;;;27.73;11.20;;;;;;;-3.12;100.00;97398.09;4976216;28;20222;-70
2024/01/20 04:49:43;;;;;;;27.67;8.97;;;;;;;-3.07;100.00;97391.81;4977523;28;20683;-70
2024/01/20 04:52:09;;;;;;;19.93;8.90;;;;;;;-3.09;100.00;97391.06;4977990;28;20215;-69
2024/01/20 04:54:36;;;;;;;24.30;8.97;;;;;;;-3.19;100.00;97401.84;4977930;28;20580;-70
2024/01/20 04:57:04;;;;;;;23.60;8.97;;;;;;;-2.92;100.00;97410.00;4976006;28;20233;-70
2024/01/20 04:59:31;;;;;;;24.50;9.47;;;;;;;-2.95;100.00;97414.50;4978531;28;20199;-70
2024/01/20 05:01:57;;;;;;;32.00;10.73;;;;;;;-2.91;100.00;97414.28;4979075;28;20309;-70
2024/01/20 05:04:24;;;;;;;28.60;11.00;;;;;;;-3.08;100.00;97409.94;4976530;28;20498;-70
2024/01/20 05:06:50;;;;;;;25.37;10.37;;;;;;;-3.06;100.00;97411.53;4976540;28;20237;-70
2024/01/20 05:09:17;;;;;;;28.27;10.00;;;;;;;-3.20;100.00;97410.47;4977240;28;20213;-73
2024/01/20 05:11:44;;;;;;;23.97;9.20;;;;;;;-3.33;100.00;97412.72;4977391;28;20737;-70
2024/01/20 05:14:12;;;;;;;29.60;10.70;;;;;;;-3.09;100.00;97401.38;4977389;28;20231;-70
2024/01/20 05:16:38;;;;;;;25.23;10.00;;;;;;;-3.30;100.00;97407.44;4977250;28;20203;-70
2024/01/20 05:19:05;;;;;;;25.97;10.70;;;;;;;-3.26;100.00;97409.00;4975257;28;20207;-70
2024/01/20 05:21:31;;;;;;;27.53;10.23;;;;;;;-3.26;100.00;97403.84;4980111;28;20210;-70
2024/01/20 05:23:58;;;;;;;27.70;8.33;;;;;;;-3.37;100.00;97407.78;4979062;28;20204;-70
2024/01/20 05:26:24;;;;;;;34.93;11.07;;;;;;;-3.39;100.00;97410.41;4976989;28;20219;-70
2024/01/20 05:28:51;;;;;;;24.40;8.73;;;;;;;-3.67;100.00;97421.94;4979836;28;20223;-69
2024/01/20 05:31:20;;;;;;;20.93;8.57;;;;;;;-3.84;100.00;97428.69;4977226;28;20291;-70
2024/01/20 05:33:47;;;;;;;29.33;9.80;;;;;;;-3.53;100.00;97415.31;4978377;28;20603;-70
2024/01/20 05:36:13;;;;;;;25.93;9.57;;;;;;;-3.55;100.00;97430.00;4975754;28;20547;-70
2024/01/20 05:38:40;;;;;;;23.47;9.43;;;;;;;-3.64;100.00;97439.81;4979322;28;20235;-70
2024/01/20 05:41:07;;;;;;;35.10;11.97;;;;;;;-3.48;100.00;97428.84;4977559;28;20199;-70
2024/01/20 05:43:33;;;;;;;30.93;11.60;;;;;;;-3.45;100.00;97436.44;4976604;28;20285;-70
2024/01/20 05:46:04;;;;;;;29.83;10.60;;;;;;;-3.30;100.00;97442.69;4977200;28;20697;-70
2024/01/20 05:48:32;;;;;;;34.23;11.80;;;;;;;-3.13;100.00;97441.06;4976844;28;20227;-70
2024/01/20 05:50:59;;;;;;;30.30;10.87;;;;;;;-3.28;100.00;97457.19;4976555;28;20211;-70
2024/01/20 05:53:25;;;;;;;29.30;10.87;;;;;;;-3.26;100.00;97452.81;4977225;28;20199;-69
2024/01/20 05:55:52;;;;;;;33.40;11.97;;;;;;;-3.22;100.00;97444.03;4977750;28;20208;-70
2024/01/20 05:58:18;;;;;;;32.37;11.20;;;;;;;-3.10;100.00;97453.00;4976415;28;20697;-70
2024/01/20 06:00:45;;;;;;;36.57;13.03;;;;;;;-3.16;100.00;97450.66;4978664;28;20208;-70
2024/01/20 06:03:11;;;;;;;37.10;11.13;;;;;;;-3.46;100.00;97465.69;4978120;28;20575;-70
2024/01/20 06:05:39;;;;;;;32.97;12.20;;;;;;;-3.26;100.00;97460.53;4976395;28;20218;-70
2024/01/20 06:08:06;;;;;;;34.83;12.47;;;;;;;-3.56;100.00;97472.09;4977473;28;20233;-70
2024/01/20 06:10:33;;;;;;;40.70;14.73;;;;;;;-3.80;100.00;97472.28;4977978;28;20211;-69
2024/01/20 06:12:59;;;;;;;32.43;11.87;;;;;;;-3.84;100.00;97475.03;4976507;28;20209;-70
2024/01/20 06:15:26;;;;;;;31.17;11.77;;;;;;;-3.70;100.00;97472.72;4976432;28;20230;-70
2024/01/20 06:17:53;;;;;;;30.33;11.83;;;;;;;-3.60;100.00;97474.88;4974694;28;20231;-70
2024/01/20 06:20:20;;;;;;;33.50;11.83;;;;;;;-3.85;100.00;97478.50;4974708;28;20222;-70
2024/01/20 06:22:48;;;;;;;41.47;12.83;;;;;;;-3.69;100.00;97480.41;4977575;28;20207;-70
2024/01/20 06:25:14;;;;;;;44.07;14.30;;;;;;;-3.64;100.00;97481.03;4977719;28;20716;-70
2024/01/20 06:27:41;;;;;;;43.97;12.80;;;;;;;-3.92;100.00;97482.22;4977538;28;20604;-70
2024/01/20 06:30:08;;;;;;;34.47;12.80;;;;;;;-3.82;100.00;97476.63;4976279;28;20199;-69
2024/01/20 06:32:35;;;;;;;48.57;15.27;;;;;;;-3.72;100.00;97475.38;4977470;28;20636;-68
2024/01/20 06:35:01;;;;;;;36.10;12.07;;;;;;;-3.76;100.00;97471.25;4975848;28;20203;-70
2024/01/20 06:37:27;;;;;;;59.20;18.93;;;;;;;-3.98;100.00;97473.00;4976446;28;20245;-70
2024/01/20 06:39:55;;;;;;;41.53;13.57;;;;;;;-3.75;100.00;97484.97;4976905;28;20207;-70
2024/01/20 06:42:22;;;;;;;35.90;13.03;;;;;;;-3.99;100.00;97484.19;4976323;28;20206;-70
2024/01/20 06:44:49;;;;;;;47.33;12.87;;;;;;;-4.15;100.00;97490.00;4977782;28;20740;-70
2024/01/20 06:47:15;;;;;;;30.87;11.40;;;;;;;-4.03;100.00;97490.34;4976161;28;20222;-70
2024/01/20 06:49:41;;;;;;;28.03;11.00;;;;;;;-3.91;100.00;97496.75;4975905;28;20207;-70
2024/01/20 06:52:07;;;;;;;55.57;18.70;;;;;;;-4.03;100.00;97503.22;4976192;28;20681;-70
2024/01/20 06:54:39;;;;;;;24.03;9.17;;;;;;;-4.09;100.00;97505.19;4975910;28;20217;-70
2024/01/20 06:57:07;;;;;;;27.03;10.40;;;;;;;-4.00;100.00;97499.69;4975711;28;20305;-70
2024/01/20 06:59:34;;;;;;;27.27;9.80;;;;;;;-4.06;100.00;97510.22;4974913;28;20218;-70
2024/01/20 07:02:00;;;;;;;30.87;11.13;;;;;;;-3.83;100.00;97508.44;4976190;28;20230;-70
2024/01/20 07:04:27;;;;;;;27.53;10.53;;;;;;;-3.73;100.00;97514.06;4976044;28;20670;-67
2024/01/20 07:06:53;;;;;;;36.97;12.90;;;;;;;-3.88;100.00;97514.66;4974811;28;20770;-70
2024/01/20 07:09:20;;;;;;;32.43;11.73;;;;;;;-4.16;100.00;97520.03;4976378;28;20382;-70
2024/01/20 07:11:46;;;;;;;31.03;11.40;;;;;;;-3.81;100.00;97521.25;4977616;28;20206;-70
2024/01/20 07:14:14;;;;;;;32.33;12.70;;;;;;;-3.79;100.00;97516.88;4976023;28;20199;-69
2024/01/20 07:16:40;;;;;;;33.03;11.90;;;;;;;-3.83;100.00;97523.03;4975593;28;20231;-70
2024/01/20 07:19:07;;;;;;;30.30;12.30;;;;;;;-3.66;100.00;97521.50;4974324;28;20224;-70
2024/01/20 07:21:33;;;;;;;23.13;9.90;;;;;;;-3.61;100.00;97525.53;4976319;28;20276;-70
2024/01/20 07:24:00;;;;;;;30.37;11.43;;;;;;;-3.48;100.00;97513.03;4977849;28;20217;-70
2024/01/20 07:26:26;;;;;;;27.83;10.10;;;;;;;-3.50;100.00;97523.38;4976084;28;20195;-70
2024/01/20 07:28:53;;;;;;;30.13;11.60;;;;;;;-3.41;100.00;97528.16;4977056;28;20200;-70
2024/01/20 07:31:22;;;;;;;27.73;10.50;;;;;;;-3.24;100.00;97530.06;4978315;28;20664;-70
2024/01/20 07:33:49;;;;;;;33.73;11.77;;;;;;;-3.31;100.00;97533.78;4979691;28;20219;-70
2024/01/20 07:36:16;;;;;;;28.37;11.00;;;;;;;-3.27;100.00;97532.75;4977721;28;20207;-70
2024/01/20 07:38:42;;;;;;;32.00;11.70;;;;;;;-3.24;100.00;97541.19;4979501;28;20289;-70
2024/01/20 07:41:08;;;;;;;34.13;11.90;;;;;;;-3.19;100.00;97544.44;4977736;28;20216;-70
2024/01/20 07:43:35;;;;;;;25.47;10.30;;;;;;;-3.44;100.00;97554.03;4978486;28;20212;-70
2024/01/20 07:46:01;;;;;;;35.03;13.50;;;;;;;-3.28;100.00;97562.84;4979398;28;20211;-70
2024/01/20 07:48:29;;;;;;;31.30;11.73;;;;;;;-3.28;100.00;97562.00;4976875;28;20217;-70
2024/01/20 07:50:56;;;;;;;32.87;11.90;;;;;;;-3.59;100.00;97567.56;4978267;28;20219;-69
2024/01/20 07:53:22;;;;;;;31.20;12.10;;;;;;;-3.51;100.00;97568.06;4977270;28;20901;-69
2024/01/20 07:55:49;;;;;;;30.50;11.73;;;;;;;-3.28;100.00;97575.72;4979151;28;20206;-69
2024/01/20 07:58:15;;;;;;;32.47;12.47;;;;;;;-3.23;100.00;97578.09;4978274;28;20228;-69
2024/01/20 08:00:42;;;;;;;30.33;12.70;;;;;;;-3.19;100.00;97577.94;4980255;28;20302;-69
2024/01/20 08:03:08;;;;;;;31.57;11.50;;;;;;;-3.18;100.00;97574.47;4978702;28;20208;-69
2024/01/20 08:05:36;;;;;;;35.10;11.87;;;;;;;-2.94;100.00;97576.84;4977137;28;20665;-69
2024/01/20 08:08:03;;;;;;;32.90;11.60;;;;;;;-3.37;100.00;97573.53;4979043;28;20330;-69
2024/01/20 08:10:30;;;;;;;33.63;13.10;;;;;;;-3.34;100.00;97580.28;4981927;28;20206;-69
2024/01/20 08:12:56;;;;;;;31.07;11.70;;;;;;;-3.23;100.00;97578.09;4981293;28;20218;-69
2024/01/20 08:15:23;;;;;;;32.40;11.70;;;;;;;-3.17;100.00;97577.88;4978161;28;20203;-69
2024/01/20 08:17:50;;;;;;;32.43;12.43;;;;;;;-3.24;100.00;97592.75;4976829;28;20290;-69
2024/01/20 08:20:16;;;;;;;33.17;12.33;;;;;;;-3.09;100.00;97591.25;4977900;28;21258;-69
2024/01/20 08:22:44;;;;;;;30.57;12.23;;;;;;;-2.81;100.00;97579.78;4978290;28;21049;-69
2024/01/20 08:25:13;;;;;;;35.27;13.30;;;;;;;-2.89;100.00;97584.38;4979010;28;20209;-69
2024/01/20 08:27:39;;;;;;;31.60;12.77;;;;;;;-3.16;100.00;97580.38;4979039;28;20231;-69
2024/01/20 08:30:07;;;;;;;32.67;12.90;;;;;;;-3.19;100.00;97585.66;4976447;28;20270;-69
2024/01/20 08:32:33;;;;;;;29.27;12.33;;;;;;;-3.18;100.00;97591.63;4978492;28;20199;-70
2024/01/20 08:35:00;;;;;;;33.90;12.83;;;;;;;-3.13;100.00;97589.72;4980116;28;20216;-69
2024/01/20 08:37:26;;;;;;;30.23;11.47;;;;;;;-3.09;100.00;97593.84;4976236;28;20228;-69
2024/01/20 08:39:54;;;;;;;28.20;11.70;;;;;;;-2.73;100.00;97608.66;4977686;28;20214;-70
2024/01/20 08:42:20;;;;;;;36.13;13.00;;;;;;;-2.89;100.00;97610.19;4978600;28;20523;-69
2024/01/20 08:44:47;;;;;;;30.87;12.20;;;;;;;-2.93;100.00;97608.63;4978135;28;20206;-69
2024/01/20 08:47:14;;;;;;;35.00;12.90;;;;;;;-3.33;100.00;97618.88;4977400;28;20224;-69
2024/01/20 08:49:42;;;;;;;28.87;11.60;;;;;;;-3.34;100.00;97617.19;4978102;28;20230;-69
2024/01/20 08:52:10;;;;;;;27.27;10.70;;;;;;;-2.93;100.00;97613.78;4976775;28;20200;-69
2024/01/20 08:54:37;;;;;;;28.27;9.70;;;;;;;-3.12;100.00;97622.34;4978673;28;20631;-69
2024/01/20 08:57:05;;;;;;;29.00;11.63;;;;;;;-2.99;100.00;97621.78;4979111;28;20314;-69
2024/01/20 08:59:32;;;;;;;31.10;11.73;;;;;;;-2.84;100.00;97627.16;4977975;28;20230;-69
2024/01/20 09:01:59;;;;;;;27.40;11.70;;;;;;;-2.64;100.00;97626.31;4977937;28;20217;-69
2024/01/20 09:04:25;;;;;;;31.53;11.83;;;;;;;-2.65;100.00;97632.38;4979263;28;20223;-69
2024/01/20 09:06:52;;;;;;;30.53;12.03;;;;;;;-2.87;100.00;97639.34;4977238;28;20235;-69
2024/01/20 09:09:19;;;;;;;29.30;11.37;;;;;;;-3.25;100.00;97634.03;4976671;28;20210;-69
2024/01/20 09:11:45;;;;;;;27.47;10.27;;;;;;;-3.45;100.00;97639.97;4979121;28;20212;-69
2024/01/20 09:14:13;;;;;;;31.17;11.80;;;;;;;-2.77;100.00;97638.06;4977570;28;20206;-69
2024/01/20 09:16:39;;;;;;;28.10;11.30;;;;;;;-2.91;100.00;97641.19;4975388;28;20303;-69
2024/01/20 09:19:06;;;;;;;30.80;11.53;;;;;;;-3.02;100.00;97642.53;4975899;28;20223;-70
2024/01/20 09:21:32;;;;;;;24.00;10.37;;;;;;;-2.73;100.00;97643.00;4979549;28;20195;-69
2024/01/20 09:24:00;;;;;;;31.83;11.70;;;;;;;-2.45;100.00;97648.69;4978282;28;20211;-69
2024/01/20 09:26:26;;;;;;;22.67;10.00;;;;;;;-2.61;100.00;97651.97;4976192;28;20687;-70
2024/01/20 09:28:53;;;;;;;30.90;11.37;;;;;;;-2.27;100.00;97643.56;4978300;28;20222;-69
2024/01/20 09:31:21;;;;;;;31.67;11.97;;;;;;;-1.97;100.00;97644.81;4976933;28;20329;-69
2024/01/20 09:33:47;;;;;;;30.40;11.20;;;;;;;-2.01;100.00;97640.72;4978621;28;20229;-69
2024/01/20 09:36:13;;;;;;;26.40;10.83;;;;;;;-1.91;100.00;97641.94;4977883;28;20209;-70
2024/01/20 09:38:40;;;;;;;23.10;8.57;;;;;;;-2.21;100.00;97643.31;4975707;28;20238;-70
2024/01/20 09:41:09;;;;;;;21.20;8.70;;;;;;;-2.13;100.00;97651.56;4978767;28;20873;-69
2024/01/20 09:43:38;;;;;;;23.23;9.03;;;;;;;-2.36;100.00;97650.88;4976838;28;20213;-70
2024/01/20 09:46:05;;;;;;;29.63;10.27;;;;;;;-2.21;100.00;97650.22;4978052;28;20687;-69
2024/01/20 09:48:33;;;;;;;29.47;9.83;;;;;;;-2.29;100.00;97660.88;4976505;28;20226;-69
2024/01/20 09:50:59;;;;;;;23.77;9.23;;;;;;;-2.34;100.00;97667.97;4977399;28;20231;-69
2024/01/20 09:53:26;;;;;;;21.67;8.63;;;;;;;-2.02;100.00;97659.69;4975898;28;20296;-70
2024/01/20 09:55:53;;;;;;;23.83;8.80;;;;;;;-2.51;100.00;97671.34;4978161;28;20219;-69
2024/01/20 09:58:20;;;;;;;32.77;11.63;;;;;;;-2.14;100.00;97669.69;4976789;28;20232;-69
2024/01/20 10:00:47;;;;;;;20.23;8.53;;;;;;;-2.09;100.00;97662.59;4976752;28;20295;-70
2024/01/20 10:03:17;;;;;;;25.70;8.80;;;;;;;-1.72;100.00;97664.34;4977688;28;20666;-70
2024/01/20 10:05:44;;;;;;;20.33;8.57;;;;;;;-1.86;100.00;97667.59;4976133;28;20203;-69
2024/01/20 10:08:12;;;;;;;25.47;9.70;;;;;;;-2.17;100.00;97675.84;4976179;28;20249;-69
2024/01/20 10:10:38;;;;;;;24.03;8.83;;;;;;;-2.36;100.00;97674.94;4977011;28;20212;-69
2024/01/20 10:13:05;;;;;;;22.77;9.60;;;;;;;-2.26;100.00;97671.06;4976547;28;20225;-69
2024/01/20 10:15:33;;;;;;;19.33;8.30;;;;;;;-2.05;100.00;97665.00;4975136;28;20238;-69
2024/01/20 10:17:59;;;;;;;24.57;9.40;;;;;;;-1.74;100.00;97655.81;4976293;28;20718;-69
2024/01/20 10:20:31;;;;;;;19.93;7.63;;;;;;;-1.99;100.00;97653.56;4976801;28;20262;-69
2024/01/20 10:23:02;;;;;;;21.43;8.53;;;;;;;-1.66;100.00;97648.53;4976779;28;20202;-69
2024/01/20 10:25:29;;;;;;;20.37;8.93;;;;;;;-1.77;100.00;97660.25;4975194;28;20207;-69
2024/01/20 10:27:56;;;;;;;21.17;8.47;;;;;;;-1.66;100.00;97656.28;4977188;28;20233;-70
2024/01/20 10:30:23;;;;;;;24.53;8.67;;;;;;;-1.58;100.00;97655.94;4976608;28;20218;-69
2024/01/20 10:32:50;;;;;;;17.57;7.93;;;;;;;-1.44;100.00;97656.16;4977970;28;20202;-69
2024/01/20 10:35:16;;;;;;;21.47;8.07;;;;;;;-1.50;100.00;97659.00;4976498;28;20210;-69
2024/01/20 10:37:45;;;;;;;19.90;8.10;;;;;;;-1.74;100.00;97660.97;4974967;28;20258;-69
2024/01/20 10:40:14;;;;;;;16.20;7.33;;;;;;;-1.23;100.00;97659.41;4977258;28;20230;-70
2024/01/20 10:42:45;;;;;;;18.57;7.43;;;;;;;-1.39;100.00;97656.78;4976356;28;20214;-69
2024/01/20 10:45:16;;;;;;;20.37;8.43;;;;;;;-1.12;100.00;97648.56;4976604;28;21319;-69
2024/01/20 10:47:53;;;;;;;16.47;6.60;;;;;;;-1.09;100.00;97635.50;4974506;28;20291;-69
2024/01/20 10:50:22;;;;;;;14.83;6.90;;;;;;;-0.78;100.00;97630.50;4974287;28;20201;-69
2024/01/20 10:52:48;;;;;;;19.07;6.10;;;;;;;-0.94;100.00;97630.41;4975959;28;20630;-69
2024/01/20 10:55:18;;;;;;;20.93;7.70;;;;;;;-0.80;100.00;97633.16;4976080;28;20221;-69
2024/01/20 10:57:45;;;;;;;17.73;6.97;;;;;;;-0.67;100.00;97639.41;4976075;28;20234;-70
2024/01/20 11:00:12;;;;;;;14.73;5.60;;;;;;;-0.98;100.00;97636.66;4975960;28;20724;-69
2024/01/20 11:02:39;;;;;;;16.67;7.33;;;;;;;-0.91;100.00;97632.84;4974448;28;20341;-69
2024/01/20 11:05:17;;;;;;;15.20;6.83;;;;;;;-0.72;100.00;97637.97;4976940;28;20213;-69
2024/01/20 11:07:44;;;;;;;18.07;6.33;;;;;;;-0.83;100.00;97642.81;4978783;28;20244;-69
2024/01/20 11:10:10;;;;;;;14.13;6.30;;;;;;;-1.05;100.00;97650.78;4979866;28;20918;-69
2024/01/20 11:12:39;;;;;;;18.03;7.37;;;;;;;-0.64;100.00;97643.59;4978324;28;20207;-69